Terminal Aerodrome Forecast
Issued by NWS

Home | Current Version | Previous Version | Graphics & Text | Print | Product List | Glossary On
Versions: 1 2 3 4 5 6 7 8 9 10 11 12
000
FTUS43 KICT 282300
TAFRSL
TAF
KRSL 282336Z 2900/2924 17010KT P6SM FEW070
     FM290200 14010KT P6SM FEW070
     FM290900 17012KT P6SM FEW060
     FM291700 17012G18KT P6SM FEW070=

USA.gov is the U.S. government's official web portal to all federal, state and local government web resources and services.